createdAt,value
2023-04-13T00:00:03.598Z,93582.00
2023-04-13T00:01:03.610Z,93584.00
2023-04-13T00:02:03.753Z,93582.00
2023-04-13T00:03:03.868Z,93582.00
2023-04-13T00:04:04.288Z,93582.00
2023-04-13T00:05:03.782Z,93582.00
2023-04-13T00:06:03.745Z,93582.00
2023-04-13T00:07:03.833Z,93578.00
2023-04-13T00:08:03.860Z,93580.00
2023-04-13T00:09:03.857Z,93582.00
2023-04-13T00:10:03.988Z,93582.00
2023-04-13T00:11:03.956Z,93582.00
2023-04-13T00:12:03.952Z,93582.00
2023-04-13T00:13:03.989Z,93582.00
2023-04-13T00:14:04.019Z,93582.00
2023-04-13T00:15:04.071Z,93584.00
2023-04-13T00:16:04.108Z,93584.00
2023-04-13T00:17:04.193Z,93588.00
2023-04-13T00:18:04.211Z,93590.00
2023-04-13T00:19:04.207Z,93590.00
2023-04-13T00:20:04.245Z,93592.00
2023-04-13T00:21:04.288Z,93592.00
2023-04-13T00:22:04.324Z,93590.00
2023-04-13T00:23:04.410Z,93592.00
2023-04-13T00:24:04.394Z,93592.00
2023-04-13T00:25:04.437Z,93594.00
2023-04-13T00:26:04.468Z,93594.00
2023-04-13T00:27:04.493Z,93588.00
2023-04-13T00:28:04.545Z,93584.00
2023-04-13T00:29:04.596Z,93584.00
2023-04-13T00:30:04.622Z,93582.00
2023-04-13T00:31:04.709Z,93576.00
2023-04-13T00:32:04.682Z,93571.00
2023-04-13T00:33:05.476Z,93563.00
2023-04-13T00:34:04.776Z,93567.00
2023-04-13T00:35:04.812Z,93565.00
2023-04-13T00:36:04.809Z,93571.00
2023-04-13T00:37:04.862Z,93574.00
2023-04-13T00:38:05.043Z,93576.00
2023-04-13T00:39:04.938Z,93572.00
2023-04-13T00:40:04.985Z,93571.00
2023-04-13T00:41:05.002Z,93569.00
2023-04-13T00:42:05.036Z,93567.00
2023-04-13T00:43:05.154Z,93569.00
2023-04-13T00:44:05.068Z,93571.00
2023-04-13T00:45:05.104Z,93571.00
2023-04-13T00:46:05.161Z,93572.00
2023-04-13T00:47:05.196Z,93574.00
2023-04-13T00:48:05.240Z,93572.00
2023-04-13T00:49:05.256Z,93574.00
2023-04-13T00:50:05.353Z,93576.00
2023-04-13T00:51:05.323Z,93578.00
2023-04-13T00:52:05.381Z,93580.00
2023-04-13T00:53:06.834Z,93580.00
2023-04-13T00:54:05.373Z,93582.00
2023-04-13T00:55:05.356Z,93582.00
2023-04-13T00:56:05.351Z,93580.00
2023-04-13T00:57:05.367Z,93578.00
2023-04-13T00:58:05.346Z,93580.00
2023-04-13T00:59:05.408Z,93580.00
2023-04-13T01:00:05.334Z,93578.00
2023-04-13T01:01:05.359Z,93576.00
2023-04-13T01:02:05.653Z,93576.00
2023-04-13T01:03:05.400Z,93576.00
2023-04-13T01:04:05.378Z,93574.00
2023-04-13T01:05:05.293Z,93576.00
2023-04-13T01:06:05.290Z,93572.00
2023-04-13T01:07:05.276Z,93574.00
2023-04-13T01:08:05.281Z,93574.00
2023-04-13T01:09:05.290Z,93578.00
2023-04-13T01:10:05.257Z,93574.00
2023-04-13T01:11:05.274Z,93578.00
2023-04-13T01:12:05.251Z,93576.00
2023-04-13T01:13:05.253Z,93578.00
2023-04-13T01:14:05.232Z,93580.00
2023-04-13T01:15:05.232Z,93582.00
2023-04-13T01:16:05.253Z,93584.00
2023-04-13T01:17:05.212Z,93584.00
2023-04-13T01:18:05.207Z,93586.00
2023-04-13T01:19:05.219Z,93586.00
2023-04-13T01:20:05.193Z,93588.00
2023-04-13T01:21:05.173Z,93590.00
2023-04-13T01:22:05.174Z,93590.00
2023-04-13T01:23:05.159Z,93592.00
2023-04-13T01:24:05.199Z,93594.00
2023-04-13T01:25:05.170Z,93590.00
2023-04-13T01:26:05.179Z,93592.00
2023-04-13T01:27:05.142Z,93596.00
2023-04-13T01:28:05.136Z,93596.00
2023-04-13T01:29:05.131Z,93598.00
2023-04-13T01:30:05.229Z,93604.00
2023-04-13T01:31:05.185Z,93604.00
2023-04-13T01:32:05.156Z,93608.00
2023-04-13T01:33:05.173Z,93606.00
2023-04-13T01:34:05.153Z,93610.00
2023-04-13T01:35:05.095Z,93612.00
2023-04-13T01:36:05.092Z,93614.00
2023-04-13T01:37:05.069Z,93608.00
2023-04-13T01:38:05.113Z,93614.00
2023-04-13T01:39:05.111Z,93616.00
2023-04-13T01:40:05.202Z,93612.00
2023-04-13T01:41:05.238Z,93619.00
2023-04-13T01:42:05.239Z,93618.00
2023-04-13T01:43:05.336Z,93616.00
2023-04-13T01:44:05.325Z,93614.00
2023-04-13T01:45:05.391Z,93618.00
2023-04-13T01:46:05.614Z,93618.00
2023-04-13T01:47:05.455Z,93619.00
2023-04-13T01:48:05.495Z,93623.00
2023-04-13T01:49:05.531Z,93623.00
2023-04-13T01:50:05.576Z,93627.00
2023-04-13T01:51:05.684Z,93625.00
2023-04-13T01:52:05.689Z,93627.00
2023-04-13T01:53:05.743Z,93627.00
2023-04-13T01:54:05.788Z,93631.00
2023-04-13T01:55:05.832Z,93633.00
2023-04-13T01:56:05.898Z,93633.00
2023-04-13T01:57:05.940Z,93643.00
2023-04-13T01:58:05.956Z,93647.00
2023-04-13T01:59:05.998Z,93643.00
2023-04-13T02:00:06.060Z,93649.00
2023-04-13T02:01:06.170Z,93651.00
2023-04-13T02:02:06.218Z,93655.00
2023-04-13T02:03:06.300Z,93655.00
2023-04-13T02:04:06.318Z,93659.00
2023-04-13T02:05:06.270Z,93661.00
2023-04-13T02:06:06.326Z,93664.00
2023-04-13T02:07:06.345Z,93668.00
2023-04-13T02:08:06.408Z,93670.00
2023-04-13T02:09:06.463Z,93674.00
2023-04-13T02:10:06.528Z,93672.00
2023-04-13T02:11:06.552Z,93676.00
2023-04-13T02:12:06.602Z,93672.00
2023-04-13T02:13:06.628Z,93672.00
2023-04-13T02:14:06.748Z,93670.00
2023-04-13T02:15:06.743Z,93670.00
2023-04-13T02:16:06.835Z,93668.00
2023-04-13T02:17:06.872Z,93668.00
2023-04-13T02:18:06.877Z,93664.00
2023-04-13T02:19:06.958Z,93663.00
2023-04-13T02:20:06.983Z,93664.00
2023-04-13T02:21:07.061Z,93663.00
2023-04-13T02:22:07.150Z,93663.00
2023-04-13T02:23:07.154Z,93661.00
2023-04-13T02:24:07.210Z,93659.00
2023-04-13T02:25:07.231Z,93653.00
2023-04-13T02:26:07.261Z,93655.00
2023-04-13T02:27:07.302Z,93651.00
2023-04-13T02:28:07.328Z,93651.00
2023-04-13T02:29:07.383Z,93649.00
2023-04-13T02:30:07.427Z,93651.00
2023-04-13T02:31:07.503Z,93649.00
2023-04-13T02:32:07.545Z,93651.00
2023-04-13T02:33:07.570Z,93649.00
2023-04-13T02:34:07.619Z,93651.00
2023-04-13T02:35:07.680Z,93649.00
2023-04-13T02:36:07.747Z,93649.00
2023-04-13T02:37:07.775Z,93653.00
2023-04-13T02:38:07.839Z,93647.00
2023-04-13T02:39:07.903Z,93645.00
2023-04-13T02:40:07.913Z,93643.00
2023-04-13T02:41:07.993Z,93647.00
2023-04-13T02:42:08.003Z,93651.00
2023-04-13T02:43:08.052Z,93657.00
2023-04-13T02:44:08.122Z,93659.00
2023-04-13T02:45:08.157Z,93661.00
2023-04-13T02:46:08.216Z,93663.00
2023-04-13T02:47:08.231Z,93664.00
2023-04-13T02:48:08.298Z,93663.00
2023-04-13T02:49:08.344Z,93663.00
2023-04-13T02:50:08.420Z,93661.00
2023-04-13T02:51:08.481Z,93664.00
2023-04-13T02:52:08.505Z,93663.00
2023-04-13T02:53:08.557Z,93663.00
2023-04-13T02:54:08.587Z,93664.00
2023-04-13T02:55:08.648Z,93668.00
2023-04-13T02:56:08.700Z,93666.00
2023-04-13T02:57:08.736Z,93672.00
2023-04-13T02:58:08.853Z,93676.00
2023-04-13T02:59:08.868Z,93678.00
2023-04-13T03:00:08.924Z,93676.00
2023-04-13T03:01:09.004Z,93676.00
2023-04-13T03:02:09.051Z,93674.00
2023-04-13T03:03:09.167Z,93670.00
2023-04-13T03:04:09.121Z,93668.00
2023-04-13T03:05:09.191Z,93664.00
2023-04-13T03:06:09.236Z,93666.00
2023-04-13T03:07:09.275Z,93666.00
2023-04-13T03:08:09.338Z,93666.00
2023-04-13T03:09:09.424Z,93664.00
2023-04-13T03:10:09.484Z,93664.00
2023-04-13T03:11:09.546Z,93661.00
2023-04-13T03:12:09.572Z,93664.00
2023-04-13T03:13:09.603Z,93664.00
2023-04-13T03:14:09.650Z,93661.00
2023-04-13T03:15:09.721Z,93661.00
2023-04-13T03:16:10.004Z,93661.00
2023-04-13T03:17:09.875Z,93655.00
2023-04-13T03:18:10.509Z,93655.00
2023-04-13T03:19:09.905Z,93657.00
2023-04-13T03:20:09.980Z,93657.00
2023-04-13T03:21:10.043Z,93659.00
2023-04-13T03:22:10.059Z,93661.00
2023-04-13T03:23:10.180Z,93661.00
2023-04-13T03:24:10.284Z,93666.00
2023-04-13T03:25:10.225Z,93664.00
2023-04-13T03:26:10.289Z,93666.00
2023-04-13T03:27:10.347Z,93668.00
2023-04-13T03:28:10.411Z,93668.00
2023-04-13T03:29:10.435Z,93674.00
2023-04-13T03:30:10.521Z,93674.00
2023-04-13T03:31:10.564Z,93674.00
2023-04-13T03:32:10.611Z,93674.00
2023-04-13T03:33:10.676Z,93672.00
2023-04-13T03:34:10.767Z,93674.00
2023-04-13T03:35:10.788Z,93674.00
2023-04-13T03:36:10.850Z,93680.00
2023-04-13T03:37:10.917Z,93682.00
2023-04-13T03:38:10.975Z,93684.00
2023-04-13T03:39:11.048Z,93682.00
2023-04-13T03:40:11.089Z,93682.00
2023-04-13T03:41:11.546Z,93680.00
2023-04-13T03:42:11.173Z,93680.00
2023-04-13T03:43:11.207Z,93674.00
2023-04-13T03:44:11.298Z,93678.00
2023-04-13T03:45:11.352Z,93678.00
2023-04-13T03:46:11.449Z,93682.00
2023-04-13T03:47:11.458Z,93682.00
2023-04-13T03:48:11.484Z,93686.00
2023-04-13T03:49:11.583Z,93686.00
2023-04-13T03:50:11.620Z,93686.00
2023-04-13T03:51:11.680Z,93690.00
2023-04-13T03:52:11.776Z,93690.00
2023-04-13T03:53:11.769Z,93698.00
2023-04-13T03:54:11.962Z,93700.00
2023-04-13T03:55:11.909Z,93705.00
2023-04-13T03:56:11.934Z,93710.00
2023-04-13T03:57:12.020Z,93711.00
2023-04-13T03:58:12.055Z,93711.00
2023-04-13T03:59:12.087Z,93711.00
2023-04-13T04:00:12.146Z,93708.00
2023-04-13T04:01:12.196Z,93710.00
2023-04-13T04:02:12.309Z,93713.00
2023-04-13T04:03:12.385Z,93717.00
2023-04-13T04:04:12.504Z,93721.00
2023-04-13T04:05:12.463Z,93721.00
2023-04-13T04:06:12.455Z,93717.00
2023-04-13T04:07:12.541Z,93717.00
2023-04-13T04:08:12.557Z,93713.00
2023-04-13T04:09:12.643Z,93713.00
2023-04-13T04:10:14.538Z,93711.00
2023-04-13T04:11:12.727Z,93713.00
2023-04-13T04:12:14.422Z,93710.00
2023-04-13T04:13:12.820Z,93711.00
2023-04-13T04:14:12.881Z,93713.00
2023-04-13T04:15:12.939Z,93713.00
2023-04-13T04:16:13.061Z,93717.00
2023-04-13T04:17:13.044Z,93715.00
2023-04-13T04:18:13.153Z,93717.00
2023-04-13T04:19:13.149Z,93717.00
2023-04-13T04:20:13.176Z,93717.00
2023-04-13T04:21:13.224Z,93719.00
2023-04-13T04:22:13.276Z,93719.00
2023-04-13T04:23:13.320Z,93723.00
2023-04-13T04:24:13.371Z,93725.00
2023-04-13T04:25:13.438Z,93725.00
2023-04-13T04:26:13.487Z,93723.00
2023-04-13T04:27:13.559Z,93725.00
2023-04-13T04:28:13.600Z,93721.00
2023-04-13T04:29:13.681Z,93723.00
2023-04-13T04:30:13.689Z,93721.00
2023-04-13T04:31:13.842Z,93723.00
2023-04-13T04:32:14.014Z,93723.00
2023-04-13T04:33:13.836Z,93727.00
2023-04-13T04:34:13.919Z,93727.00
2023-04-13T04:35:13.954Z,93731.00
2023-04-13T04:36:14.113Z,93727.00
2023-04-13T04:37:20.298Z,93731.00
2023-04-13T04:38:15.058Z,93727.00
2023-04-13T04:39:14.056Z,93727.00
2023-04-13T04:40:14.085Z,93729.00
2023-04-13T04:41:14.023Z,93733.00
2023-04-13T04:42:14.058Z,93735.00
2023-04-13T04:43:14.025Z,93737.00
2023-04-13T04:44:14.098Z,93741.00
2023-04-13T04:45:14.155Z,93745.00
2023-04-13T04:46:15.925Z,93747.00
2023-04-13T04:47:14.252Z,93752.00
2023-04-13T04:48:14.319Z,93758.00
2023-04-13T04:49:14.356Z,93762.00
2023-04-13T04:50:14.491Z,93768.00
2023-04-13T04:51:14.484Z,93772.00
2023-04-13T04:52:14.514Z,93772.00
2023-04-13T04:53:14.563Z,93774.00
2023-04-13T04:54:14.631Z,93774.00
2023-04-13T04:55:14.703Z,93774.00
2023-04-13T04:56:14.776Z,93780.00
2023-04-13T04:57:14.846Z,93788.00
2023-04-13T04:58:14.865Z,93792.00
2023-04-13T04:59:14.943Z,93794.00
2023-04-13T05:00:15.029Z,93794.00
2023-04-13T05:01:15.047Z,93792.00
2023-04-13T05:02:15.102Z,93786.00
2023-04-13T05:03:15.162Z,93786.00
2023-04-13T05:04:15.299Z,93778.00
2023-04-13T05:05:15.294Z,93778.00
2023-04-13T05:06:15.335Z,93782.00
2023-04-13T05:07:15.369Z,93784.00
2023-04-13T05:08:15.410Z,93788.00
2023-04-13T05:09:15.479Z,93790.00
2023-04-13T05:10:15.546Z,93790.00
2023-04-13T05:11:15.645Z,93788.00
2023-04-13T05:12:15.645Z,93788.00
2023-04-13T05:13:15.710Z,93790.00
2023-04-13T05:14:15.747Z,93794.00
2023-04-13T05:15:15.795Z,93798.00
2023-04-13T05:16:15.911Z,93798.00
2023-04-13T05:17:15.936Z,93798.00
2023-04-13T05:18:15.986Z,93802.00
2023-04-13T05:19:16.019Z,93805.00
2023-04-13T05:20:16.159Z,93804.00
2023-04-13T05:21:16.195Z,93807.00
2023-04-13T05:22:16.221Z,93804.00
2023-04-13T05:23:16.464Z,93805.00
2023-04-13T05:24:16.332Z,93802.00
2023-04-13T05:25:16.388Z,93805.00
2023-04-13T05:26:16.576Z,93805.00
2023-04-13T05:27:16.635Z,93807.00
2023-04-13T05:28:16.559Z,93809.00
2023-04-13T05:29:16.681Z,93811.00
2023-04-13T05:30:16.658Z,93815.00
2023-04-13T05:31:16.737Z,93815.00
2023-04-13T05:32:16.769Z,93815.00
2023-04-13T05:33:16.944Z,93815.00
2023-04-13T05:34:16.891Z,93813.00
2023-04-13T05:35:16.903Z,93815.00
2023-04-13T05:36:17.083Z,93811.00
2023-04-13T05:37:16.999Z,93815.00
2023-04-13T05:38:17.000Z,93819.00
2023-04-13T05:39:17.089Z,93821.00
2023-04-13T05:40:20.143Z,93823.00
2023-04-13T05:41:17.572Z,93825.00
2023-04-13T05:42:17.068Z,93827.00
2023-04-13T05:43:17.062Z,93831.00
2023-04-13T05:44:17.079Z,93835.00
2023-04-13T05:45:17.354Z,93837.00
2023-04-13T05:46:17.106Z,93833.00
2023-04-13T05:47:17.092Z,93837.00
2023-04-13T05:48:17.048Z,93837.00
2023-04-13T05:49:16.985Z,93837.00
2023-04-13T05:50:17.005Z,93839.00
2023-04-13T05:51:16.999Z,93839.00
2023-04-13T05:52:17.020Z,93841.00
2023-04-13T05:53:17.026Z,93843.00
2023-04-13T05:54:16.991Z,93845.00
2023-04-13T05:55:17.001Z,93849.00
2023-04-13T05:56:16.971Z,93847.00
2023-04-13T05:57:16.965Z,93851.00
2023-04-13T05:58:16.962Z,93851.00
2023-04-13T05:59:16.958Z,93851.00
2023-04-13T06:00:16.922Z,93851.00
2023-04-13T06:01:16.907Z,93845.00
2023-04-13T06:02:17.003Z,93849.00
2023-04-13T06:03:17.140Z,93847.00
2023-04-13T06:04:17.058Z,93849.00
2023-04-13T06:05:16.961Z,93845.00
2023-04-13T06:06:16.918Z,93849.00
2023-04-13T06:07:16.891Z,93845.00
2023-04-13T06:08:16.901Z,93845.00
2023-04-13T06:09:16.879Z,93843.00
2023-04-13T06:10:16.903Z,93845.00
2023-04-13T06:11:16.897Z,93847.00
2023-04-13T06:12:16.875Z,93851.00
2023-04-13T06:13:16.823Z,93852.00
2023-04-13T06:14:16.858Z,93854.00
2023-04-13T06:15:16.810Z,93856.00
2023-04-13T06:16:16.880Z,93858.00
2023-04-13T06:17:16.978Z,93860.00
2023-04-13T06:18:16.973Z,93862.00
2023-04-13T06:19:16.915Z,93862.00
2023-04-13T06:20:16.970Z,93860.00
2023-04-13T06:21:17.034Z,93858.00
2023-04-13T06:22:17.045Z,93858.00
2023-04-13T06:23:17.059Z,93860.00
2023-04-13T06:24:17.096Z,93858.00
2023-04-13T06:25:17.149Z,93860.00
2023-04-13T06:26:17.220Z,93860.00
2023-04-13T06:27:17.201Z,93860.00
2023-04-13T06:28:17.218Z,93860.00
2023-04-13T06:29:17.265Z,93858.00
2023-04-13T06:30:17.310Z,93860.00
2023-04-13T06:31:17.358Z,93862.00
2023-04-13T06:32:17.370Z,93866.00
2023-04-13T06:33:17.359Z,93868.00
2023-04-13T06:34:17.380Z,93868.00
2023-04-13T06:35:17.466Z,93870.00
2023-04-13T06:36:17.568Z,93868.00
2023-04-13T06:37:17.587Z,93872.00
2023-04-13T06:38:17.507Z,93872.00
2023-04-13T06:39:17.568Z,93874.00
2023-04-13T06:40:17.560Z,93878.00
2023-04-13T06:41:17.714Z,93878.00
2023-04-13T06:42:17.639Z,93880.00
2023-04-13T06:43:29.248Z,93884.00
2023-04-13T06:44:18.647Z,93882.00
2023-04-13T06:45:17.630Z,93882.00
2023-04-13T06:46:19.708Z,93882.00
2023-04-13T06:47:17.608Z,93880.00
2023-04-13T06:48:17.594Z,93878.00
2023-04-13T06:49:17.581Z,93876.00
2023-04-13T06:50:17.576Z,93878.00
2023-04-13T06:51:17.680Z,93880.00
2023-04-13T06:52:17.587Z,93880.00
2023-04-13T06:53:17.593Z,93890.00
2023-04-13T06:54:17.558Z,93888.00
2023-04-13T06:55:17.592Z,93890.00
2023-04-13T06:56:18.061Z,93897.00
2023-04-13T06:57:17.584Z,93901.00
2023-04-13T06:58:17.552Z,93901.00
2023-04-13T06:59:17.541Z,93901.00
2023-04-13T07:00:28.930Z,93901.00
2023-04-13T07:01:18.578Z,93901.00
2023-04-13T07:02:17.621Z,93901.00
2023-04-13T07:03:17.627Z,93903.00
2023-04-13T07:04:17.621Z,93905.00
2023-04-13T07:05:17.486Z,93901.00
2023-04-13T07:06:17.534Z,93905.00
2023-04-13T07:07:17.618Z,93890.00
2023-04-13T07:08:17.677Z,93907.00
2023-04-13T07:09:17.789Z,93907.00
2023-04-13T07:10:17.748Z,93907.00
2023-04-13T07:11:17.821Z,93909.00
2023-04-13T07:12:17.895Z,93905.00
2023-04-13T07:13:17.952Z,93905.00
2023-04-13T07:14:18.033Z,93905.00
2023-04-13T07:15:18.037Z,93903.00
2023-04-13T07:16:18.181Z,93901.00
2023-04-13T07:17:18.622Z,93901.00
2023-04-13T07:18:18.164Z,93907.00
2023-04-13T07:19:18.200Z,93907.00
2023-04-13T07:20:18.251Z,93909.00
2023-04-13T07:21:18.271Z,93907.00
2023-04-13T07:22:18.322Z,93903.00
2023-04-13T07:23:18.344Z,93903.00
2023-04-13T07:24:18.408Z,93901.00
2023-04-13T07:25:18.452Z,93901.00
2023-04-13T07:26:18.505Z,93901.00
2023-04-13T07:28:37.820Z,93901.00
2023-04-13T07:29:37.249Z,93903.00
2023-04-13T07:30:37.295Z,93905.00
2023-04-13T07:31:37.337Z,93903.00
2023-04-13T07:32:37.821Z,93905.00
2023-04-13T07:33:38.286Z,93905.00
2023-04-13T07:34:37.491Z,93903.00
2023-04-13T07:35:37.625Z,93901.00
2023-04-13T07:36:37.604Z,93901.00
2023-04-13T07:37:37.892Z,93901.00
2023-04-13T07:38:37.703Z,93905.00
2023-04-13T07:39:37.766Z,93907.00
2023-04-13T07:40:37.904Z,93907.00
2023-04-13T07:41:37.850Z,93909.00
2023-04-13T07:42:38.322Z,93907.00
2023-04-13T07:43:37.965Z,93905.00
2023-04-13T07:44:37.988Z,93911.00
2023-04-13T07:45:38.024Z,93905.00
2023-04-13T07:46:38.012Z,93903.00
2023-04-13T07:47:38.046Z,93903.00
2023-04-13T07:48:38.071Z,93901.00
2023-04-13T07:49:38.054Z,93897.00
2023-04-13T07:50:38.022Z,93897.00
2023-04-13T07:51:38.044Z,93890.00
2023-04-13T07:52:38.306Z,93890.00
2023-04-13T07:53:38.064Z,93888.00
2023-04-13T07:54:38.057Z,93890.00
2023-04-13T07:55:38.074Z,93897.00
2023-04-13T07:56:38.131Z,93897.00
2023-04-13T07:57:38.318Z,93890.00
2023-04-13T07:58:38.110Z,93886.00
2023-04-13T07:59:38.141Z,93884.00
2023-04-13T08:00:38.162Z,93884.00
2023-04-13T08:01:38.168Z,93878.00
2023-04-13T08:02:38.325Z,93878.00
2023-04-13T08:03:38.350Z,93880.00
2023-04-13T08:04:38.467Z,93874.00
2023-04-13T08:05:38.275Z,93870.00
2023-04-13T08:06:38.270Z,93868.00
2023-04-13T08:07:38.300Z,93868.00
2023-04-13T08:08:38.314Z,93868.00
2023-04-13T08:09:38.334Z,93864.00
2023-04-13T08:10:38.355Z,93866.00
2023-04-13T08:11:38.359Z,93866.00
2023-04-13T08:12:38.792Z,93866.00
2023-04-13T08:13:38.354Z,93866.00
2023-04-13T08:14:38.357Z,93866.00
2023-04-13T08:15:38.385Z,93866.00
2023-04-13T08:16:38.445Z,93868.00
2023-04-13T08:17:38.899Z,93868.00
2023-04-13T08:18:38.411Z,93866.00
2023-04-13T08:19:38.433Z,93864.00
2023-04-13T08:20:38.435Z,93862.00
2023-04-13T08:21:38.456Z,93860.00
2023-04-13T08:22:38.841Z,93864.00
2023-04-13T08:23:39.302Z,93866.00
2023-04-13T08:24:38.495Z,93866.00
2023-04-13T08:25:38.499Z,93866.00
2023-04-13T08:26:38.567Z,93864.00
2023-04-13T08:27:39.319Z,93862.00
2023-04-13T08:28:38.506Z,93864.00
2023-04-13T08:29:38.571Z,93864.00
2023-04-13T08:30:38.557Z,93862.00
2023-04-13T08:31:38.777Z,93864.00
2023-04-13T08:32:38.871Z,93862.00
2023-04-13T08:33:38.683Z,93860.00
2023-04-13T08:34:38.660Z,93856.00
2023-04-13T08:35:38.705Z,93852.00
2023-04-13T08:36:39.320Z,93851.00
2023-04-13T08:37:38.832Z,93851.00
2023-04-13T08:38:38.677Z,93847.00
2023-04-13T08:39:38.718Z,93845.00
2023-04-13T08:40:38.684Z,93845.00
2023-04-13T08:41:40.438Z,93843.00
2023-04-13T08:42:38.808Z,93843.00
2023-04-13T08:43:40.310Z,93851.00
2023-04-13T08:44:38.691Z,93854.00
2023-04-13T08:45:38.672Z,93856.00
2023-04-13T08:46:38.654Z,93858.00
2023-04-13T08:47:38.690Z,93858.00
2023-04-13T08:48:50.366Z,93862.00
2023-04-13T08:49:39.660Z,93864.00
2023-04-13T08:50:38.662Z,93864.00
2023-04-13T08:51:38.636Z,93864.00
2023-04-13T08:52:38.876Z,93860.00
2023-04-13T08:53:38.640Z,93862.00
2023-04-13T08:54:38.619Z,93864.00
2023-04-13T08:55:38.590Z,93862.00
2023-04-13T08:56:45.993Z,93862.00
2023-04-13T08:57:39.822Z,93858.00
2023-04-13T08:58:38.581Z,93854.00
2023-04-13T08:59:38.703Z,93852.00
2023-04-13T09:00:38.581Z,93854.00
2023-04-13T09:01:38.680Z,93854.00
2023-04-13T09:02:44.175Z,93854.00
2023-04-13T09:03:39.724Z,93852.00
2023-04-13T09:04:38.777Z,93856.00
2023-04-13T09:05:38.510Z,93854.00
2023-04-13T09:06:38.559Z,93854.00
2023-04-13T09:07:38.613Z,93854.00
2023-04-13T09:08:38.659Z,93854.00
2023-04-13T09:09:38.673Z,93856.00
2023-04-13T09:10:38.772Z,93856.00
2023-04-13T09:11:38.774Z,93862.00
2023-04-13T09:12:38.841Z,93858.00
2023-04-13T09:13:38.804Z,93856.00
2023-04-13T09:14:38.796Z,93856.00
2023-04-13T09:15:38.817Z,93852.00
2023-04-13T09:16:38.891Z,93849.00
2023-04-13T09:17:38.839Z,93849.00
2023-04-13T09:18:38.853Z,93845.00
2023-04-13T09:19:38.970Z,93845.00
2023-04-13T09:20:38.839Z,93843.00
2023-04-13T09:21:38.805Z,93841.00
2023-04-13T09:22:38.824Z,93843.00
2023-04-13T09:23:38.847Z,93839.00
2023-04-13T09:24:38.906Z,93839.00
2023-04-13T09:25:38.795Z,93837.00
2023-04-13T09:26:38.832Z,93833.00
2023-04-13T09:27:38.822Z,93831.00
2023-04-13T09:28:38.836Z,93829.00
2023-04-13T09:29:38.849Z,93827.00
2023-04-13T09:30:38.962Z,93823.00
2023-04-13T09:31:38.902Z,93823.00
2023-04-13T09:32:39.382Z,93821.00
2023-04-13T09:33:38.897Z,93821.00
2023-04-13T09:34:38.919Z,93827.00
2023-04-13T09:35:38.944Z,93825.00
2023-04-13T09:36:49.673Z,93825.00
2023-04-13T09:37:40.384Z,93821.00
2023-04-13T09:38:39.026Z,93821.00
2023-04-13T09:39:38.995Z,93819.00
2023-04-13T09:40:39.045Z,93817.00
2023-04-13T09:41:38.947Z,93817.00
2023-04-13T09:42:39.351Z,93815.00
2023-04-13T09:43:39.378Z,93817.00
2023-04-13T09:44:38.932Z,93819.00
2023-04-13T09:45:39.048Z,93821.00
2023-04-13T09:46:39.076Z,93821.00
2023-04-13T09:47:39.125Z,93821.00
2023-04-13T09:48:39.168Z,93821.00
2023-04-13T09:49:39.331Z,93819.00
2023-04-13T09:50:39.276Z,93821.00
2023-04-13T09:51:39.362Z,93821.00
2023-04-13T09:52:39.390Z,93819.00
2023-04-13T09:53:39.366Z,93817.00
2023-04-13T09:54:39.485Z,93815.00
2023-04-13T09:55:39.462Z,93815.00
2023-04-13T09:56:39.566Z,93813.00
2023-04-13T09:57:39.532Z,93813.00
2023-04-13T09:58:39.614Z,93815.00
2023-04-13T09:59:39.613Z,93813.00
2023-04-13T10:00:39.634Z,93811.00
2023-04-13T10:01:39.736Z,93813.00
2023-04-13T10:02:39.817Z,93809.00
2023-04-13T10:03:39.852Z,93809.00
2023-04-13T10:04:39.806Z,93809.00
2023-04-13T10:05:55.216Z,93804.00
2023-04-13T10:06:40.785Z,93800.00
2023-04-13T10:07:39.832Z,93798.00
2023-04-13T10:08:39.801Z,93796.00
2023-04-13T10:09:39.772Z,93796.00
2023-04-13T10:10:39.843Z,93798.00
2023-04-13T10:11:39.821Z,93802.00
2023-04-13T10:12:39.760Z,93802.00
2023-04-13T10:13:39.728Z,93802.00
2023-04-13T10:14:39.731Z,93798.00
2023-04-13T10:15:39.837Z,93798.00
2023-04-13T10:16:39.846Z,93798.00
2023-04-13T10:17:39.815Z,93792.00
2023-04-13T10:18:39.784Z,93792.00
2023-04-13T10:19:39.749Z,93792.00
2023-04-13T10:20:39.767Z,93792.00
2023-04-13T10:21:39.852Z,93794.00
2023-04-13T10:22:39.798Z,93794.00
2023-04-13T10:23:39.850Z,93794.00
2023-04-13T10:24:39.887Z,93794.00
2023-04-13T10:25:40.032Z,93792.00
2023-04-13T10:26:39.979Z,93796.00
2023-04-13T10:27:39.982Z,93794.00
2023-04-13T10:28:40.034Z,93800.00
2023-04-13T10:29:40.100Z,93800.00
2023-04-13T10:30:40.115Z,93798.00
2023-04-13T10:31:40.191Z,93794.00
2023-04-13T10:32:40.876Z,93794.00
2023-04-13T10:33:41.662Z,93790.00
2023-04-13T10:34:40.184Z,93788.00
2023-04-13T10:35:42.762Z,93788.00
2023-04-13T10:36:40.139Z,93788.00
2023-04-13T10:37:40.371Z,93784.00
2023-04-13T10:38:40.137Z,93782.00
2023-04-13T10:39:40.141Z,93782.00
2023-04-13T10:40:40.893Z,93782.00
2023-04-13T10:41:40.096Z,93776.00
2023-04-13T10:42:51.294Z,93778.00
2023-04-13T10:43:41.113Z,93778.00
2023-04-13T10:44:40.090Z,93772.00
2023-04-13T10:45:40.078Z,93774.00
2023-04-13T10:46:40.094Z,93770.00
2023-04-13T10:47:40.421Z,93764.00
2023-04-13T10:48:40.086Z,93760.00
2023-04-13T10:49:40.094Z,93758.00
2023-04-13T10:50:40.892Z,93760.00
2023-04-13T10:51:40.161Z,93758.00
2023-04-13T10:52:40.429Z,93757.00
2023-04-13T10:53:40.127Z,93755.00
2023-04-13T10:54:40.431Z,93758.00
2023-04-13T10:55:40.164Z,93758.00
2023-04-13T10:56:41.019Z,93760.00
2023-04-13T10:57:40.888Z,93760.00
2023-04-13T10:58:40.234Z,93764.00
2023-04-13T10:59:55.437Z,93762.00
2023-04-13T11:00:46.138Z,93764.00
2023-04-13T11:01:42.902Z,93764.00
2023-04-13T11:02:42.073Z,93762.00
2023-04-13T11:03:47.392Z,93760.00
2023-04-13T11:04:41.468Z,93760.00
2023-04-13T11:05:40.427Z,93760.00
2023-04-13T11:06:40.417Z,93758.00
2023-04-13T11:07:40.445Z,93758.00
2023-04-13T11:08:40.508Z,93757.00
2023-04-13T11:09:40.517Z,93760.00
2023-04-13T11:10:40.529Z,93758.00
2023-04-13T11:11:40.568Z,93764.00
2023-04-13T11:12:40.629Z,93768.00
2023-04-13T11:13:40.674Z,93770.00
2023-04-13T11:14:40.651Z,93772.00
2023-04-13T11:15:40.688Z,93776.00
2023-04-13T11:16:40.773Z,93778.00
2023-04-13T11:17:40.779Z,93772.00
2023-04-13T11:18:40.726Z,93772.00
2023-04-13T11:19:40.771Z,93772.00
2023-04-13T11:20:40.779Z,93770.00
2023-04-13T11:21:40.815Z,93766.00
2023-04-13T11:22:47.493Z,93766.00
2023-04-13T11:23:41.792Z,93764.00
2023-04-13T11:24:40.765Z,93760.00
2023-04-13T11:25:40.783Z,93760.00
2023-04-13T11:26:42.323Z,93764.00
2023-04-13T11:27:40.895Z,93762.00
2023-04-13T11:28:40.891Z,93764.00
2023-04-13T11:29:40.957Z,93768.00
2023-04-13T11:30:40.958Z,93770.00
2023-04-13T11:31:41.117Z,93776.00
2023-04-13T11:32:41.105Z,93774.00
2023-04-13T11:33:41.091Z,93780.00
2023-04-13T11:34:41.190Z,93784.00
2023-04-13T11:35:41.186Z,93788.00
2023-04-13T11:36:41.176Z,93790.00
2023-04-13T11:37:41.223Z,93790.00
2023-04-13T11:38:41.378Z,93796.00
2023-04-13T11:39:41.415Z,93798.00
2023-04-13T11:40:41.331Z,93796.00
2023-04-13T11:41:41.380Z,93796.00
2023-04-13T11:42:42.391Z,93802.00
2023-04-13T11:43:41.462Z,93798.00
2023-04-13T11:44:41.485Z,93796.00
2023-04-13T11:45:41.552Z,93800.00